Albany, New Hampshire
Current Conditions -  °F | °C
As of 12:54 AM on Saturday 25 Oct 2014 (Local Time) from KIZG Reporting Station
Overcast Overcast  
Wind Chill:   Ceiling: 9000
Heat Index:   Visibility: 10mi
Dew Point:   Wind: 0mph
Humidity: 89%   Direction: NA
Pressure: 29.72"   Gusts: NA
Location:  43.9735°N, 71.2576°W
Report Text: KIZG 250454Z AUTO 00000KT 10SM OVC090 07/05 A2972 RMK AO2 SLP065 T00670050 401220067
Loading
Personal Weather Stations






























Interactive Weather Map
Tropical Storm Tracking
New forecast layout! Learn more

10-Day Weather Forecast

Advertisements
Track Severe Weather on mobile